Augusta State Airport Augusta US
ICAO: KAUG
IATA: AUG
Category: Medium
Scheduled Services: Yes

Elevation: 352 ft
TransAlt. 18000 ft.

Airport Communications:
PORTLAND APP/DEP:128.35
ASOS:118.325
CLNC DEL:119.95
BANGOR RDO:122.6
CTAF/UNICOM:123

KAUG Zoom In..

Runways:

(A) RW 08 length 2703 ft width 75 ft
---- / hdg 80

(B) RW 17 length 5001 ft width 100 ft
ILS 108.70 / hdg 171

(C) RW 26 length 2703 ft width 75 ft
---- / hdg 260

(D) RW 35 length 5001 ft width 100 ft
---- / hdg 351

Location; KAUG
Day. 20 / Time. 02.53 Zulu
* Altimeter: 30.12
* Temperature: 17° c. 62.6°f.
* Wind from: 190° Speed 03 kn.
Dewpoint: 10° c.
Visibility: 10 Statute Miles.
Clouds: Clear (automated report).

KAUG 200253Z AUTO 19003KT 10SM CLR 17/10 A3012 RMK AO2 SLP199 T01720100 51020


Wind From 190°
Speed 03 kn.

 
 
jpsmedia.com for Web Design worldairports.se 2018   terms of use